createdAt,value
2022-08-18T00:01:32.076Z,85.36
2022-08-18T00:06:34.562Z,84.45
2022-08-18T00:11:42.055Z,83.60
2022-08-18T00:16:44.421Z,82.82
2022-08-18T00:21:46.459Z,82.98
2022-08-18T00:26:49.056Z,83.16
2022-08-18T00:31:52.198Z,83.54
2022-08-18T00:36:54.241Z,84.00
2022-08-18T00:41:56.387Z,84.13
2022-08-18T00:46:58.280Z,84.32
2022-08-18T00:52:04.665Z,84.90
2022-08-18T00:57:08.878Z,85.40
2022-08-18T01:02:19.223Z,85.89
2022-08-18T01:07:26.444Z,86.49
2022-08-18T01:12:44.922Z,86.73
2022-08-18T01:18:07.658Z,87.22
2022-08-18T01:23:14.670Z,87.63
2022-08-18T01:28:19.522Z,87.93
2022-08-18T01:33:21.709Z,87.99
2022-08-18T01:38:38.990Z,88.56
2022-08-18T01:43:48.395Z,88.87
2022-08-18T01:48:51.781Z,89.14
2022-08-18T01:54:05.957Z,89.36
2022-08-18T01:59:19.589Z,89.48
2022-08-18T02:04:37.089Z,89.51
2022-08-18T02:09:41.582Z,89.62
2022-08-18T02:14:44.282Z,89.70
2022-08-18T02:19:48.237Z,89.80
2022-08-18T02:24:52.776Z,89.82
2022-08-18T02:30:01.967Z,89.83
2022-08-18T02:35:17.510Z,89.78
2022-08-18T02:40:19.824Z,89.74
2022-08-18T02:45:26.251Z,89.67
2022-08-18T02:50:28.274Z,89.73
2022-08-18T02:55:30.262Z,89.66
2022-08-18T03:00:32.267Z,89.46
2022-08-18T03:05:48.980Z,89.31
2022-08-18T03:10:54.074Z,88.87
2022-08-18T03:15:57.230Z,88.75
2022-08-18T03:21:02.129Z,89.16
2022-08-18T03:26:12.814Z,89.51
2022-08-18T03:31:17.198Z,89.51
2022-08-18T03:36:29.611Z,89.51
2022-08-18T03:41:57.094Z,89.68
2022-08-18T03:46:53.679Z,89.83
2022-08-18T03:51:56.078Z,89.91
2022-08-18T03:56:58.565Z,90.00
2022-08-18T04:02:11.987Z,90.13
2022-08-18T04:07:20.953Z,90.30
2022-08-18T04:12:23.883Z,90.40
2022-08-18T04:17:28.286Z,90.29
2022-08-18T04:22:33.943Z,90.09
2022-08-18T04:27:39.401Z,89.82
2022-08-18T04:32:41.296Z,89.44
2022-08-18T04:37:44.128Z,88.65
2022-08-18T04:42:46.329Z,87.37
2022-08-18T04:47:48.542Z,84.31
2022-08-18T04:53:15.968Z,80.33
2022-08-18T04:58:31.985Z,77.54
2022-08-18T05:03:33.939Z,75.86
2022-08-18T05:08:36.296Z,72.45
2022-08-18T05:13:38.972Z,70.49
2022-08-18T05:18:41.661Z,69.08
2022-08-18T05:23:46.715Z,68.86
2022-08-18T05:28:49.204Z,70.00
2022-08-18T05:33:58.006Z,71.41
2022-08-18T05:39:18.090Z,71.98
2022-08-18T05:44:27.405Z,72.90
2022-08-18T05:49:44.168Z,73.51
2022-08-18T05:55:10.010Z,73.80
2022-08-18T06:00:12.610Z,74.49
2022-08-18T06:05:25.859Z,75.14
2022-08-18T06:10:28.312Z,75.34
2022-08-18T06:16:16.041Z,75.96
2022-08-18T06:22:03.975Z,76.24
2022-08-18T06:27:14.952Z,76.27
2022-08-18T06:32:34.399Z,76.22
2022-08-18T06:38:10.188Z,74.97
2022-08-18T06:43:15.970Z,73.76
2022-08-18T06:48:24.473Z,73.35
2022-08-18T06:53:58.727Z,72.56
2022-08-18T06:59:26.190Z,71.79
2022-08-18T07:04:37.455Z,70.49
2022-08-18T07:09:39.460Z,68.71
2022-08-18T07:15:04.954Z,67.59
2022-08-18T07:20:09.666Z,67.04
2022-08-18T07:25:23.137Z,65.21
2022-08-18T07:30:29.123Z,64.14
2022-08-18T07:35:45.012Z,63.00
2022-08-18T07:41:07.329Z,62.45
2022-08-18T07:46:18.466Z,61.73
2022-08-18T07:51:27.060Z,59.66
2022-08-18T07:56:52.929Z,57.92
2022-08-18T08:02:12.989Z,56.58
2022-08-18T08:07:25.684Z,55.81
2022-08-18T08:12:37.282Z,54.97
2022-08-18T08:17:54.230Z,54.04
2022-08-18T08:23:17.479Z,53.13
2022-08-18T08:28:50.261Z,51.94
2022-08-18T08:34:05.833Z,51.25
2022-08-18T08:40:09.936Z,50.65
2022-08-18T08:45:15.737Z,51.12
2022-08-18T08:50:26.433Z,50.58
2022-08-18T08:55:37.561Z,50.52
2022-08-18T09:00:41.140Z,50.13
2022-08-18T09:06:12.571Z,49.58
2022-08-18T09:11:48.528Z,49.20
2022-08-18T09:17:17.268Z,47.59
2022-08-18T09:22:38.344Z,47.24
2022-08-18T09:28:10.082Z,45.83
2022-08-18T09:33:48.015Z,46.65
2022-08-18T09:39:23.216Z,45.76
2022-08-18T09:44:47.172Z,43.39
2022-08-18T09:49:54.710Z,44.47
2022-08-18T09:54:59.732Z,44.69
2022-08-18T10:00:04.886Z,43.87
2022-08-18T10:05:24.460Z,44.40
2022-08-18T10:11:00.651Z,44.54
2022-08-18T10:16:10.787Z,43.50
2022-08-18T10:21:21.146Z,42.78
2022-08-18T10:26:34.128Z,41.82
2022-08-18T10:31:57.640Z,41.48
2022-08-18T10:37:11.801Z,41.44
2022-08-18T10:42:31.171Z,40.87
2022-08-18T10:47:34.265Z,40.92
2022-08-18T10:53:24.265Z,40.47
2022-08-18T10:58:28.215Z,40.40
2022-08-18T11:03:55.800Z,40.17
2022-08-18T11:09:02.206Z,41.67
2022-08-18T11:14:15.809Z,41.62
2022-08-18T11:19:19.933Z,39.96
2022-08-18T11:24:25.225Z,39.54
2022-08-18T11:29:59.017Z,39.94
2022-08-18T11:35:07.594Z,39.13
2022-08-18T11:46:11.785Z,38.00
2022-08-18T11:51:17.703Z,37.63
2022-08-18T11:56:36.071Z,37.86
2022-08-18T12:01:42.174Z,37.81
2022-08-18T12:06:56.740Z,38.01
2022-08-18T12:12:05.206Z,37.93
2022-08-18T12:17:08.161Z,37.35
2022-08-18T12:22:20.283Z,36.45
2022-08-18T12:27:25.399Z,35.85
2022-08-18T12:32:47.025Z,35.54
2022-08-18T12:38:18.147Z,35.89
2022-08-18T12:43:34.131Z,35.36
2022-08-18T12:48:37.977Z,34.67
2022-08-18T12:53:58.488Z,35.56
2022-08-18T12:59:05.442Z,35.58
2022-08-18T13:04:12.495Z,35.25
2022-08-18T13:09:42.703Z,34.50
2022-08-18T13:14:38.988Z,33.97
2022-08-18T13:19:45.667Z,32.95
2022-08-18T13:24:47.779Z,32.35
2022-08-18T13:29:51.097Z,32.67
2022-08-18T13:34:54.569Z,31.14
2022-08-18T13:39:59.653Z,31.25
2022-08-18T13:45:22.611Z,30.94
2022-08-18T13:50:29.537Z,30.25
2022-08-18T13:55:32.036Z,30.92
2022-08-18T14:00:35.044Z,31.62
2022-08-18T14:05:51.464Z,30.89
2022-08-18T14:10:58.046Z,30.93
2022-08-18T14:16:01.563Z,30.72
2022-08-18T14:21:23.578Z,30.05
2022-08-18T14:26:44.127Z,29.96
2022-08-18T14:31:46.463Z,30.18
2022-08-18T14:36:49.167Z,30.42
2022-08-18T14:42:05.218Z,30.45
2022-08-18T14:47:17.487Z,30.65
2022-08-18T14:52:27.855Z,31.02
2022-08-18T14:57:30.145Z,30.67
2022-08-18T15:02:53.071Z,31.54
2022-08-18T15:08:09.135Z,31.72
2022-08-18T15:13:11.821Z,31.27
2022-08-18T15:18:15.171Z,30.83
2022-08-18T15:23:43.625Z,31.06
2022-08-18T15:29:07.731Z,31.55
2022-08-18T15:34:23.477Z,31.38
2022-08-18T15:39:30.127Z,31.06
2022-08-18T15:44:55.114Z,30.77
2022-08-18T15:50:06.819Z,31.50
2022-08-18T15:55:29.497Z,32.07
2022-08-18T16:00:42.408Z,32.52
2022-08-18T16:05:52.912Z,32.61
2022-08-18T16:10:55.964Z,32.88
2022-08-18T16:15:57.928Z,32.95
2022-08-18T16:21:08.294Z,32.69
2022-08-18T16:31:28.342Z,32.45
2022-08-18T16:36:30.323Z,32.56
2022-08-18T16:41:52.086Z,32.58
2022-08-18T16:46:54.249Z,32.62
2022-08-18T16:51:56.929Z,32.63
2022-08-18T16:56:59.337Z,32.92
2022-08-18T17:02:19.506Z,33.42
2022-08-18T17:07:21.686Z,34.15
2022-08-18T17:12:25.259Z,35.08
2022-08-18T17:17:28.260Z,35.98
2022-08-18T17:22:30.391Z,37.13
2022-08-18T17:27:37.489Z,38.72
2022-08-18T17:32:55.678Z,39.73
2022-08-18T17:38:17.124Z,40.48
2022-08-18T17:43:21.982Z,41.61
2022-08-18T17:48:28.720Z,42.76
2022-08-18T17:53:34.489Z,43.60
2022-08-18T17:58:46.617Z,44.71
2022-08-18T18:03:48.856Z,45.37
2022-08-18T18:08:59.251Z,46.33
2022-08-18T18:14:34.065Z,47.25
2022-08-18T18:19:37.374Z,47.90
2022-08-18T18:24:47.714Z,49.26
2022-08-18T18:30:06.344Z,50.04
2022-08-18T18:35:13.630Z,50.75
2022-08-18T18:40:41.800Z,51.78
2022-08-18T18:46:05.195Z,52.44
2022-08-18T18:51:35.790Z,53.51
2022-08-18T18:56:56.762Z,54.11
2022-08-18T19:02:01.026Z,55.78
2022-08-18T19:07:41.158Z,57.56
2022-08-18T19:12:55.628Z,58.84
2022-08-18T19:18:22.099Z,59.62
2022-08-18T19:23:50.208Z,59.94
2022-08-18T19:29:14.256Z,59.76
2022-08-18T19:34:31.044Z,60.40
2022-08-18T19:39:42.759Z,61.56
2022-08-18T19:45:13.017Z,62.58
2022-08-18T19:50:48.755Z,62.91
2022-08-18T19:56:02.386Z,63.30
2022-08-18T20:01:21.093Z,64.05
2022-08-18T20:06:51.204Z,64.53
2022-08-18T20:12:08.583Z,64.72
2022-08-18T20:17:10.748Z,65.04
2022-08-18T20:22:21.775Z,65.20
2022-08-18T20:27:37.208Z,65.73
2022-08-18T20:32:39.469Z,65.88
2022-08-18T20:37:42.708Z,65.88
2022-08-18T20:42:56.344Z,65.84
2022-08-18T20:49:06.283Z,65.83
2022-08-18T20:54:28.043Z,65.55
2022-08-18T20:59:39.170Z,65.50
2022-08-18T21:04:51.804Z,65.26
2022-08-18T21:10:24.505Z,65.39
2022-08-18T21:15:35.727Z,65.03
2022-08-18T21:20:37.743Z,65.05
2022-08-18T21:26:06.632Z,65.16
2022-08-18T21:31:43.547Z,65.07
2022-08-18T21:36:55.383Z,65.19
2022-08-18T21:41:58.517Z,65.26
2022-08-18T21:47:14.998Z,65.44
2022-08-18T21:52:24.264Z,65.38
2022-08-18T21:57:46.514Z,65.59
2022-08-18T22:02:53.333Z,65.59
2022-08-18T22:07:55.731Z,65.54
2022-08-18T22:13:17.387Z,65.56
2022-08-18T22:18:19.251Z,65.58
2022-08-18T22:24:03.863Z,65.73
2022-08-18T22:29:06.008Z,65.71
2022-08-18T22:34:30.555Z,66.09
2022-08-18T22:39:37.770Z,66.10
2022-08-18T22:44:41.752Z,66.43
2022-08-18T22:49:45.397Z,66.36
2022-08-18T22:54:47.395Z,66.41
2022-08-18T22:59:52.989Z,66.51
2022-08-18T23:04:55.609Z,66.69
2022-08-18T23:09:58.288Z,66.85
2022-08-18T23:15:09.606Z,66.99
2022-08-18T23:20:18.228Z,67.18
2022-08-18T23:25:21.382Z,67.21
2022-08-18T23:30:25.100Z,67.43
2022-08-18T23:35:29.703Z,67.61
2022-08-18T23:40:35.274Z,67.97
2022-08-18T23:45:38.995Z,68.19
2022-08-18T23:50:43.402Z,68.38
2022-08-18T23:55:45.412Z,68.83
